createdAt,value
2023-05-12T00:02:04.338Z,1.95
2023-05-12T00:04:30.674Z,1.27
2023-05-12T00:06:57.013Z,1.58
2023-05-12T00:09:23.406Z,1.17
2023-05-12T00:11:49.929Z,1.48
2023-05-12T00:14:16.287Z,1.20
2023-05-12T00:16:42.752Z,1.48
2023-05-12T00:19:09.107Z,1.23
2023-05-12T00:21:35.524Z,1.40
2023-05-12T00:24:01.881Z,1.30
2023-05-12T00:26:28.169Z,1.73
2023-05-12T00:28:54.589Z,2.00
2023-05-12T00:31:20.913Z,1.50
2023-05-12T00:33:47.392Z,2.28
2023-05-12T00:36:13.689Z,1.63
2023-05-12T00:38:40.063Z,1.88
2023-05-12T00:41:06.603Z,1.30
2023-05-12T00:43:33.001Z,1.23
2023-05-12T00:46:00.948Z,1.45
2023-05-12T00:48:27.348Z,1.58
2023-05-12T00:50:55.836Z,1.10
2023-05-12T00:53:22.314Z,2.03
2023-05-12T00:55:48.695Z,1.50
2023-05-12T00:58:15.107Z,1.10
2023-05-12T01:00:41.476Z,1.77
2023-05-12T01:03:08.287Z,1.50
2023-05-12T01:05:54.474Z,1.63
2023-05-12T01:08:21.622Z,1.63
2023-05-12T01:10:47.922Z,1.58
2023-05-12T01:13:14.541Z,2.00
2023-05-12T01:15:46.305Z,1.38
2023-05-12T01:18:15.570Z,1.50
2023-05-12T01:20:43.393Z,1.20
2023-05-12T01:23:09.871Z,1.90
2023-05-12T01:25:39.315Z,1.20
2023-05-12T01:28:06.861Z,1.50
2023-05-12T01:30:34.293Z,1.15
2023-05-12T01:33:01.551Z,1.77
2023-05-12T01:35:28.052Z,1.48
2023-05-12T01:37:54.336Z,1.30
2023-05-12T01:40:21.049Z,1.52
2023-05-12T01:42:47.575Z,1.13
2023-05-12T01:45:14.060Z,1.13
2023-05-12T01:47:40.576Z,1.13
2023-05-12T01:50:07.063Z,0.90
2023-05-12T01:52:33.569Z,1.40
2023-05-12T01:55:00.195Z,1.42
2023-05-12T01:57:26.611Z,1.38
2023-05-12T01:59:52.901Z,1.13
2023-05-12T02:02:19.292Z,1.50
2023-05-12T02:04:45.747Z,1.98
2023-05-12T02:07:12.333Z,1.70
2023-05-12T02:09:38.716Z,1.55
2023-05-12T02:12:06.564Z,1.83
2023-05-12T02:14:32.901Z,1.27
2023-05-12T02:16:59.400Z,1.40
2023-05-12T02:19:25.766Z,1.83
2023-05-12T02:21:52.116Z,1.77
2023-05-12T02:24:18.504Z,1.60
2023-05-12T02:26:44.814Z,1.63
2023-05-12T02:29:11.171Z,1.83
2023-05-12T02:31:37.938Z,1.30
2023-05-12T02:34:06.498Z,1.85
2023-05-12T02:36:33.450Z,1.23
2023-05-12T02:39:00.140Z,1.50
2023-05-12T02:41:26.474Z,1.38
2023-05-12T02:43:52.908Z,1.67
2023-05-12T02:46:19.254Z,1.48
2023-05-12T02:48:45.580Z,2.08
2023-05-12T02:51:12.068Z,2.13
2023-05-12T02:53:38.435Z,1.48
2023-05-12T02:56:04.980Z,1.70
2023-05-12T02:58:31.372Z,1.42
2023-05-12T03:01:09.353Z,1.45
2023-05-12T03:03:37.129Z,2.10
2023-05-12T03:06:03.760Z,1.20
2023-05-12T03:08:30.275Z,1.90
2023-05-12T03:10:56.906Z,1.88
2023-05-12T03:13:23.603Z,1.63
2023-05-12T03:15:49.912Z,1.90
2023-05-12T03:18:16.336Z,1.90
2023-05-12T03:20:42.767Z,3.03
2023-05-12T03:23:09.310Z,2.17
2023-05-12T03:25:35.695Z,2.78
2023-05-12T03:28:02.603Z,3.10
2023-05-12T03:30:29.255Z,3.17
2023-05-12T03:32:55.712Z,3.08
2023-05-12T03:35:22.141Z,2.58
2023-05-12T03:37:48.532Z,2.95
2023-05-12T03:40:14.868Z,3.40
2023-05-12T03:42:41.624Z,3.03
2023-05-12T03:45:08.550Z,3.20
2023-05-12T03:47:35.025Z,3.08
2023-05-12T03:50:01.484Z,2.72
2023-05-12T03:52:27.909Z,3.08
2023-05-12T03:54:54.261Z,2.78
2023-05-12T03:57:20.577Z,2.63
2023-05-12T03:59:47.069Z,3.55
2023-05-12T04:02:13.392Z,2.75
2023-05-12T04:04:39.818Z,3.10
2023-05-12T04:07:06.111Z,3.05
2023-05-12T04:09:32.866Z,3.72
2023-05-12T04:11:59.177Z,4.05
2023-05-12T04:14:35.250Z,3.22
2023-05-12T04:17:08.547Z,3.50
2023-05-12T04:19:34.951Z,2.50
2023-05-12T04:22:01.262Z,3.22
2023-05-12T04:24:27.589Z,2.78
2023-05-12T04:26:53.983Z,3.58
2023-05-12T04:29:20.285Z,4.00
2023-05-12T04:31:46.760Z,3.50
2023-05-12T04:34:13.236Z,3.80
2023-05-12T04:36:39.796Z,4.15
2023-05-12T04:39:06.228Z,4.40
2023-05-12T04:41:32.647Z,4.13
2023-05-12T04:44:00.671Z,4.72
2023-05-12T04:46:27.372Z,3.72
2023-05-12T04:48:53.723Z,3.92
2023-05-12T04:51:20.057Z,3.35
2023-05-12T04:53:46.466Z,3.63
2023-05-12T04:56:12.774Z,4.03
2023-05-12T04:58:39.226Z,2.78
2023-05-12T05:01:05.965Z,2.55
2023-05-12T05:03:33.004Z,4.13
2023-05-12T05:05:59.356Z,3.33
2023-05-12T05:08:25.662Z,3.17
2023-05-12T05:10:52.224Z,3.42
2023-05-12T05:13:18.619Z,3.42
2023-05-12T05:15:55.052Z,3.10
2023-05-12T05:18:24.017Z,3.08
2023-05-12T05:20:57.809Z,3.33
2023-05-12T05:23:25.169Z,3.22
2023-05-12T05:25:51.473Z,3.90
2023-05-12T05:28:17.800Z,4.03
2023-05-12T05:30:44.285Z,3.20
2023-05-12T05:33:10.999Z,3.63
2023-05-12T05:35:37.679Z,3.60
2023-05-12T05:38:04.095Z,3.58
2023-05-12T05:40:38.801Z,3.03
2023-05-12T05:43:11.591Z,3.45
2023-05-12T05:45:38.322Z,3.70
2023-05-12T05:48:04.940Z,3.80
2023-05-12T05:50:32.281Z,3.20
2023-05-12T05:52:58.657Z,2.95
2023-05-12T05:55:25.763Z,3.15
2023-05-12T05:57:52.071Z,2.90
2023-05-12T06:00:21.151Z,3.58
2023-05-12T06:02:47.724Z,3.13
2023-05-12T06:05:14.541Z,3.03
2023-05-12T06:07:41.739Z,3.22
2023-05-12T06:10:08.650Z,3.42
2023-05-12T06:12:37.480Z,3.13
2023-05-12T06:15:04.117Z,3.28
2023-05-12T06:17:32.693Z,3.55
2023-05-12T06:20:01.548Z,3.53
2023-05-12T06:22:28.094Z,3.80
2023-05-12T06:24:54.416Z,3.40
2023-05-12T06:27:20.959Z,2.92
2023-05-12T06:29:47.363Z,3.55
2023-05-12T06:32:13.966Z,3.20
2023-05-12T06:34:40.809Z,2.90
2023-05-12T06:37:07.137Z,3.95
2023-05-12T06:39:34.591Z,3.50
2023-05-12T06:42:00.920Z,2.95
2023-05-12T06:44:27.240Z,3.00
2023-05-12T06:46:53.992Z,3.58
2023-05-12T06:49:20.567Z,3.40
2023-05-12T06:51:47.253Z,3.55
2023-05-12T06:54:13.614Z,2.70
2023-05-12T06:56:40.549Z,3.13
2023-05-12T06:59:07.890Z,2.58
2023-05-12T07:01:35.078Z,3.88
2023-05-12T07:04:01.458Z,2.90
2023-05-12T07:06:28.339Z,3.10
2023-05-12T07:08:55.767Z,2.90
2023-05-12T07:11:23.246Z,2.33
2023-05-12T07:13:50.883Z,3.13
2023-05-12T07:16:18.230Z,3.38
2023-05-12T07:18:45.565Z,3.33
2023-05-12T07:21:13.034Z,2.72
2023-05-12T07:23:39.699Z,2.35
2023-05-12T07:26:07.498Z,2.42
2023-05-12T07:28:35.745Z,2.50
2023-05-12T07:31:05.006Z,2.10
2023-05-12T07:33:31.438Z,3.05
2023-05-12T07:36:03.637Z,2.65
2023-05-12T07:38:31.367Z,2.28
2023-05-12T07:40:58.513Z,3.40
2023-05-12T07:43:25.039Z,2.15
2023-05-12T07:45:51.777Z,2.45
2023-05-12T07:48:18.098Z,2.30
2023-05-12T07:50:44.919Z,1.98
2023-05-12T07:53:11.317Z,2.53
2023-05-12T07:55:37.747Z,2.30
2023-05-12T07:58:05.046Z,2.15
2023-05-12T08:00:32.093Z,2.42
2023-05-12T08:02:58.665Z,2.30
2023-05-12T08:05:25.282Z,2.03
2023-05-12T08:07:52.481Z,1.83
2023-05-12T08:10:20.574Z,2.47
2023-05-12T08:12:48.089Z,2.45
2023-05-12T08:15:14.488Z,1.80
2023-05-12T08:17:41.088Z,1.88
2023-05-12T08:20:08.633Z,1.67
2023-05-12T08:22:35.529Z,1.70
2023-05-12T08:25:02.004Z,1.65
2023-05-12T08:27:28.692Z,1.70
2023-05-12T08:29:55.259Z,1.88
2023-05-12T08:32:21.752Z,1.48
2023-05-12T08:34:48.150Z,1.63
2023-05-12T08:37:14.963Z,1.70
2023-05-12T08:39:41.316Z,1.67
2023-05-12T08:42:30.922Z,1.60
2023-05-12T08:45:00.164Z,1.65
2023-05-12T08:47:27.662Z,1.50
2023-05-12T08:50:02.837Z,1.85
2023-05-12T08:52:31.696Z,1.85
2023-05-12T08:55:00.104Z,2.08
2023-05-12T08:57:29.411Z,1.60
2023-05-12T08:59:58.333Z,1.67
2023-05-12T09:02:25.491Z,1.52
2023-05-12T09:04:52.588Z,1.50
2023-05-12T09:07:19.648Z,2.05
2023-05-12T09:09:49.059Z,1.85
2023-05-12T09:12:18.730Z,1.60
2023-05-12T09:14:48.433Z,1.60
2023-05-12T09:17:14.811Z,2.40
2023-05-12T09:19:42.012Z,2.15
2023-05-12T09:22:08.367Z,2.35
2023-05-12T09:24:46.114Z,2.38
2023-05-12T09:27:12.667Z,2.35
2023-05-12T09:29:59.225Z,1.88
2023-05-12T09:32:33.712Z,2.53
2023-05-12T09:35:05.492Z,2.00
2023-05-12T09:37:33.945Z,2.17
2023-05-12T09:40:09.546Z,2.20
2023-05-12T09:42:36.161Z,2.10
2023-05-12T09:45:06.869Z,3.22
2023-05-12T09:47:39.448Z,1.95
2023-05-12T09:50:08.214Z,1.98
2023-05-12T09:52:39.450Z,2.63
2023-05-12T09:55:11.143Z,2.42
2023-05-12T09:57:44.682Z,1.85
2023-05-12T10:00:30.282Z,2.25
2023-05-12T10:03:09.552Z,2.28
2023-05-12T10:05:39.453Z,2.60
2023-05-12T10:08:07.805Z,2.30
2023-05-12T10:10:34.304Z,1.98
2023-05-12T10:13:01.096Z,2.03
2023-05-12T10:15:28.070Z,1.80
2023-05-12T10:17:55.054Z,2.72
2023-05-12T10:20:22.573Z,2.05
2023-05-12T10:22:49.831Z,2.20
2023-05-12T10:25:17.105Z,1.95
2023-05-12T10:27:44.581Z,2.42
2023-05-12T10:30:11.767Z,1.98
2023-05-12T10:32:38.193Z,2.63
2023-05-12T10:35:09.482Z,1.98
2023-05-12T10:37:36.421Z,2.70
2023-05-12T10:40:03.387Z,2.22
2023-05-12T10:42:38.797Z,1.65
2023-05-12T10:45:19.573Z,1.85
2023-05-12T10:47:47.241Z,2.53
2023-05-12T10:50:13.955Z,2.53
2023-05-12T10:53:00.691Z,2.17
2023-05-12T10:55:44.000Z,2.22
2023-05-12T10:58:12.562Z,2.33
2023-05-12T11:00:51.948Z,1.80
2023-05-12T11:03:25.837Z,3.28
2023-05-12T11:06:04.685Z,1.98
2023-05-12T11:08:32.406Z,1.85
2023-05-12T11:10:59.661Z,2.30
2023-05-12T11:13:26.709Z,1.95
2023-05-12T11:15:55.335Z,2.10
2023-05-12T11:18:25.013Z,1.92
2023-05-12T11:20:51.719Z,2.03
2023-05-12T11:23:26.687Z,2.03
2023-05-12T11:25:54.685Z,1.77
2023-05-12T11:28:21.334Z,2.22
2023-05-12T11:30:55.181Z,1.88
2023-05-12T11:33:23.440Z,2.20
2023-05-12T11:35:50.694Z,2.75
2023-05-12T11:38:18.432Z,2.15
2023-05-12T11:40:45.321Z,2.60
2023-05-12T11:43:12.945Z,2.22
2023-05-12T11:45:39.324Z,1.80
2023-05-12T11:48:11.805Z,1.90
2023-05-12T11:50:41.183Z,2.03
2023-05-12T11:53:12.517Z,2.08
2023-05-12T11:55:47.885Z,1.63
2023-05-12T12:00:44.730Z,1.55
2023-05-12T12:03:13.887Z,1.98
2023-05-12T12:05:42.827Z,2.05
2023-05-12T12:08:14.785Z,2.20
2023-05-12T12:10:45.664Z,2.95
2023-05-12T12:13:22.240Z,2.25
2023-05-12T12:15:50.693Z,2.08
2023-05-12T12:18:17.473Z,2.95
2023-05-12T12:20:44.802Z,1.50
2023-05-12T12:23:11.348Z,1.73
2023-05-12T12:25:37.739Z,2.95
2023-05-12T12:28:06.169Z,1.90
2023-05-12T12:30:32.737Z,1.35
2023-05-12T12:32:59.055Z,2.20
2023-05-12T12:35:25.612Z,2.13
2023-05-12T12:37:52.404Z,1.90
2023-05-12T12:40:19.651Z,1.80
2023-05-12T12:42:45.979Z,1.83
2023-05-12T12:45:12.528Z,1.90
2023-05-12T12:47:39.051Z,1.88
2023-05-12T12:50:07.506Z,1.88
2023-05-12T12:52:33.838Z,1.75
2023-05-12T12:55:00.275Z,1.70
2023-05-12T12:57:26.699Z,1.77
2023-05-12T12:59:53.071Z,1.58
2023-05-12T13:02:19.676Z,1.63
2023-05-12T13:04:46.139Z,1.85
2023-05-12T13:07:13.619Z,1.88
2023-05-12T13:09:39.975Z,2.28
2023-05-12T13:12:06.859Z,2.00
2023-05-12T13:14:43.181Z,1.88
2023-05-12T13:17:11.043Z,2.50
2023-05-12T13:19:38.845Z,2.35
2023-05-12T13:22:05.757Z,1.90
2023-05-12T13:24:32.119Z,1.40
2023-05-12T13:26:58.541Z,1.90
2023-05-12T13:29:24.893Z,1.80
2023-05-12T13:31:52.061Z,1.35
2023-05-12T13:34:18.496Z,1.52
2023-05-12T13:36:48.315Z,1.73
2023-05-12T13:39:14.824Z,1.80
2023-05-12T13:41:41.128Z,1.40
2023-05-12T13:44:07.496Z,1.63
2023-05-12T13:46:33.913Z,1.63
2023-05-12T13:49:00.314Z,1.58
2023-05-12T13:51:26.789Z,1.30
2023-05-12T13:53:53.160Z,1.38
2023-05-12T13:56:19.497Z,1.48
2023-05-12T13:58:45.936Z,1.08
2023-05-12T14:01:12.476Z,1.08
2023-05-12T14:03:38.913Z,1.23
2023-05-12T14:06:05.419Z,1.17
2023-05-12T14:08:32.030Z,1.30
2023-05-12T14:10:58.483Z,1.05
2023-05-12T14:13:24.875Z,1.50
2023-05-12T14:15:51.951Z,1.67
2023-05-12T14:18:19.003Z,1.23
2023-05-12T14:20:46.017Z,1.58
2023-05-12T14:23:12.816Z,1.65
2023-05-12T14:25:39.119Z,1.67
2023-05-12T14:28:05.579Z,1.75
2023-05-12T14:30:32.308Z,1.80
2023-05-12T14:32:58.722Z,1.15
2023-05-12T14:35:25.200Z,1.13
2023-05-12T14:37:51.601Z,1.60
2023-05-12T14:40:18.130Z,2.03
2023-05-12T14:42:44.627Z,1.55
2023-05-12T14:45:11.126Z,1.10
2023-05-12T14:47:37.698Z,1.67
2023-05-12T14:50:04.391Z,1.95
2023-05-12T14:52:30.980Z,1.58
2023-05-12T14:54:57.533Z,1.65
2023-05-12T14:57:23.929Z,1.98
2023-05-12T14:59:50.257Z,1.23
2023-05-12T15:02:16.599Z,1.42
2023-05-12T15:04:42.956Z,1.48
2023-05-12T15:07:09.293Z,1.63
2023-05-12T15:09:35.720Z,1.50
2023-05-12T15:12:02.121Z,1.80
2023-05-12T15:14:28.441Z,1.88
2023-05-12T15:16:54.996Z,1.95
2023-05-12T15:19:21.446Z,2.15
2023-05-12T15:21:47.852Z,1.92
2023-05-12T15:24:14.261Z,1.73
2023-05-12T15:26:40.680Z,1.05
2023-05-12T15:29:09.435Z,1.40
2023-05-12T15:31:35.847Z,1.02
2023-05-12T15:34:02.443Z,1.65
2023-05-12T15:36:28.843Z,1.55
2023-05-12T15:38:55.252Z,1.25
2023-05-12T15:41:21.629Z,2.05
2023-05-12T15:43:48.016Z,1.88
2023-05-12T15:46:14.466Z,1.63
2023-05-12T15:48:40.841Z,1.60
2023-05-12T15:51:07.718Z,1.85
2023-05-12T15:53:34.234Z,1.77
2023-05-12T15:56:02.030Z,1.65
2023-05-12T15:58:28.605Z,1.58
2023-05-12T16:00:55.517Z,1.75
2023-05-12T16:03:21.930Z,1.67
2023-05-12T16:05:48.910Z,1.40
2023-05-12T16:08:15.338Z,1.98
2023-05-12T16:10:41.648Z,1.60
2023-05-12T16:13:08.051Z,1.55
2023-05-12T16:15:34.350Z,1.70
2023-05-12T16:18:00.786Z,1.25
2023-05-12T16:20:27.232Z,1.67
2023-05-12T16:22:53.717Z,1.50
2023-05-12T16:25:20.367Z,1.25
2023-05-12T16:27:47.089Z,1.08
2023-05-12T16:30:13.947Z,0.90
2023-05-12T16:32:40.271Z,1.40
2023-05-12T16:35:07.426Z,1.63
2023-05-12T16:37:33.979Z,1.40
2023-05-12T16:40:00.437Z,1.45
2023-05-12T16:42:26.998Z,1.23
2023-05-12T16:44:53.804Z,1.30
2023-05-12T16:47:20.485Z,1.27
2023-05-12T16:49:46.870Z,1.90
2023-05-12T16:52:13.253Z,1.65
2023-05-12T16:54:39.551Z,1.40
2023-05-12T16:57:06.235Z,1.33
2023-05-12T16:59:32.914Z,1.30
2023-05-12T17:01:59.284Z,1.55
2023-05-12T17:04:25.734Z,1.27
2023-05-12T17:06:52.039Z,1.52
2023-05-12T17:09:18.593Z,1.55
2023-05-12T17:11:44.903Z,1.40
2023-05-12T17:14:11.207Z,1.55
2023-05-12T17:16:37.725Z,2.47
2023-05-12T17:21:33.320Z,1.55
2023-05-12T17:23:59.752Z,1.55
2023-05-12T17:26:26.062Z,1.55
2023-05-12T17:28:52.563Z,1.73
2023-05-12T17:31:19.032Z,1.23
2023-05-12T17:33:45.353Z,1.83
2023-05-12T17:36:13.347Z,1.83
2023-05-12T17:38:40.654Z,2.17
2023-05-12T17:41:07.338Z,1.35
2023-05-12T17:43:33.734Z,1.60
2023-05-12T17:46:00.069Z,1.95
2023-05-12T17:48:26.628Z,1.70
2023-05-12T17:50:52.945Z,1.85
2023-05-12T17:53:19.610Z,2.28
2023-05-12T17:55:45.919Z,1.90
2023-05-12T17:58:12.325Z,1.92
2023-05-12T18:00:38.664Z,2.05
2023-05-12T18:03:05.308Z,2.15
2023-05-12T18:05:31.826Z,2.13
2023-05-12T18:07:58.157Z,2.00
2023-05-12T18:10:24.564Z,2.40
2023-05-12T18:12:51.480Z,2.30
2023-05-12T18:15:18.189Z,2.22
2023-05-12T18:17:44.919Z,2.22
2023-05-12T18:20:11.580Z,2.72
2023-05-12T18:22:38.063Z,2.25
2023-05-12T18:25:04.728Z,2.30
2023-05-12T18:27:31.249Z,2.97
2023-05-12T18:29:57.557Z,2.72
2023-05-12T18:32:25.020Z,2.67
2023-05-12T18:34:52.586Z,2.85
2023-05-12T18:37:19.136Z,2.92
2023-05-12T18:39:45.705Z,3.22
2023-05-12T18:42:12.128Z,2.80
2023-05-12T18:44:38.566Z,3.13
2023-05-12T18:47:05.927Z,3.47
2023-05-12T18:49:32.616Z,3.63
2023-05-12T18:51:59.007Z,3.47
2023-05-12T18:54:25.409Z,3.70
2023-05-12T18:56:51.732Z,4.10
2023-05-12T18:59:18.098Z,3.83
2023-05-12T19:01:44.797Z,4.55
2023-05-12T19:04:11.357Z,5.28
2023-05-12T19:06:37.757Z,10.13
2023-05-12T19:09:05.319Z,6.70
2023-05-12T19:11:31.630Z,6.68
2023-05-12T19:13:58.266Z,5.50
2023-05-12T19:16:24.633Z,5.00
2023-05-12T19:18:51.168Z,5.53
2023-05-12T19:21:18.058Z,5.78
2023-05-12T19:23:44.473Z,5.43
2023-05-12T19:26:11.044Z,5.65
2023-05-12T19:28:37.463Z,5.13
2023-05-12T19:31:04.402Z,3.90
2023-05-12T19:33:30.849Z,3.13
2023-05-12T19:35:57.390Z,3.28
2023-05-12T19:38:23.777Z,2.90
2023-05-12T19:40:50.103Z,3.88
2023-05-12T19:43:16.599Z,2.80
2023-05-12T19:45:43.301Z,3.90
2023-05-12T19:48:10.141Z,3.65
2023-05-12T19:50:36.791Z,2.78
2023-05-12T19:53:03.438Z,3.50
2023-05-12T19:55:30.163Z,2.60
2023-05-12T19:57:56.539Z,2.38
2023-05-12T20:00:22.867Z,2.83
2023-05-12T20:02:49.397Z,2.40
2023-05-12T20:05:15.892Z,2.55
2023-05-12T20:07:42.421Z,2.50
2023-05-12T20:10:09.355Z,2.70
2023-05-12T20:12:35.759Z,2.30
2023-05-12T20:15:02.275Z,2.67
2023-05-12T20:17:28.720Z,2.83
2023-05-12T20:19:55.042Z,3.00
2023-05-12T20:22:21.486Z,3.53
2023-05-12T20:24:47.794Z,3.00
2023-05-12T20:27:14.149Z,2.72
2023-05-12T20:29:41.153Z,3.03
2023-05-12T20:32:07.801Z,2.75
2023-05-12T20:34:34.387Z,2.50
2023-05-12T20:37:00.718Z,3.00
2023-05-12T20:39:27.226Z,2.28
2023-05-12T20:41:53.616Z,2.60
2023-05-12T20:44:19.977Z,2.85
2023-05-12T20:46:46.514Z,2.33
2023-05-12T20:49:12.901Z,2.58
2023-05-12T20:51:39.488Z,2.47
2023-05-12T20:54:05.997Z,2.38
2023-05-12T20:56:32.384Z,2.33
2023-05-12T20:58:58.787Z,2.63
2023-05-12T21:01:25.109Z,2.60
2023-05-12T21:03:51.783Z,3.60
2023-05-12T21:06:18.428Z,2.85
2023-05-12T21:08:44.807Z,2.75
2023-05-12T21:11:18.618Z,2.35
2023-05-12T21:13:45.959Z,2.80
2023-05-12T21:16:12.496Z,3.30
2023-05-12T21:18:39.128Z,3.60
2023-05-12T21:21:06.206Z,3.40
2023-05-12T21:23:32.779Z,3.30
2023-05-12T21:25:59.150Z,3.95
2023-05-12T21:28:25.524Z,3.50
2023-05-12T21:30:51.919Z,3.92
2023-05-12T21:33:18.392Z,3.90
2023-05-12T21:35:44.769Z,3.63
2023-05-12T21:38:11.170Z,3.95
2023-05-12T21:40:38.214Z,3.45
2023-05-12T21:43:04.639Z,4.00
2023-05-12T21:45:31.018Z,3.83
2023-05-12T21:47:57.384Z,4.25
2023-05-12T21:50:23.832Z,3.45
2023-05-12T21:52:50.380Z,3.17
2023-05-12T21:55:16.996Z,2.92
2023-05-12T21:57:43.398Z,3.53
2023-05-12T22:00:10.979Z,3.80
2023-05-12T22:02:37.318Z,3.83
2023-05-12T22:05:03.984Z,4.10
2023-05-12T22:07:30.572Z,3.85
2023-05-12T22:09:56.981Z,3.50
2023-05-12T22:12:23.380Z,3.35
2023-05-12T22:14:49.813Z,3.70
2023-05-12T22:17:16.116Z,3.65
2023-05-12T22:19:42.592Z,3.88
2023-05-12T22:22:09.058Z,3.47
2023-05-12T22:24:35.372Z,3.53
2023-05-12T22:27:02.026Z,4.30
2023-05-12T22:29:28.332Z,5.75
2023-05-12T22:31:54.745Z,4.68
2023-05-12T22:34:21.095Z,3.92
2023-05-12T22:36:47.466Z,5.00
2023-05-12T22:39:14.048Z,4.90
2023-05-12T22:41:40.852Z,4.60
2023-05-12T22:44:07.251Z,5.00
2023-05-12T22:46:33.873Z,3.80
2023-05-12T22:49:00.285Z,3.95
2023-05-12T22:51:26.599Z,4.20
2023-05-12T22:53:53.092Z,4.35
2023-05-12T22:56:19.438Z,4.32
2023-05-12T22:58:45.842Z,3.75
2023-05-12T23:01:12.291Z,4.95
2023-05-12T23:03:38.721Z,4.13
2023-05-12T23:06:05.236Z,4.20
2023-05-12T23:08:31.655Z,4.85
2023-05-12T23:10:57.968Z,4.53
2023-05-12T23:13:24.279Z,4.22
2023-05-12T23:15:50.696Z,4.10
2023-05-12T23:18:16.997Z,3.40
2023-05-12T23:20:43.389Z,4.30
2023-05-12T23:23:09.694Z,4.28
2023-05-12T23:25:36.057Z,3.65
2023-05-12T23:28:02.550Z,4.13
2023-05-12T23:30:28.937Z,4.38
2023-05-12T23:32:55.344Z,4.20
2023-05-12T23:35:21.836Z,4.20
2023-05-12T23:37:48.240Z,3.67
2023-05-12T23:40:14.582Z,3.80
2023-05-12T23:42:40.992Z,4.25
2023-05-12T23:45:07.803Z,3.75
2023-05-12T23:47:34.204Z,3.97
2023-05-12T23:50:00.641Z,3.90
2023-05-12T23:52:27.439Z,3.92
2023-05-12T23:54:53.836Z,4.28
2023-05-12T23:57:20.217Z,3.85
2023-05-12T23:59:46.552Z,4.28
